sensor_id;sensor_type;location;lat;lon;timestamp;P1;durP1;ratioP1;P2;durP2;ratioP2
18806;SDS011;9531;52.030;4.380;2022-12-07T00:00:47;578.00;;;187.00;;
18806;SDS011;9531;52.030;4.380;2022-12-07T00:03:16;579.23;;;201.67;;
18806;SDS011;9531;52.030;4.380;2022-12-07T00:05:46;580.13;;;205.07;;
18806;SDS011;9531;52.030;4.380;2022-12-07T00:08:19;586.63;;;203.70;;
18806;SDS011;9531;52.030;4.380;2022-12-07T00:10:55;584.43;;;211.73;;
18806;SDS011;9531;52.030;4.380;2022-12-07T00:13:27;585.00;;;217.50;;
18806;SDS011;9531;52.030;4.380;2022-12-07T00:15:59;583.60;;;219.90;;
18806;SDS011;9531;52.030;4.380;2022-12-07T00:18:28;581.50;;;211.03;;
18806;SDS011;9531;52.030;4.380;2022-12-07T00:21:00;587.90;;;215.23;;
18806;SDS011;9531;52.030;4.380;2022-12-07T00:23:43;577.33;;;192.17;;
18806;SDS011;9531;52.030;4.380;2022-12-07T00:26:26;561.43;;;164.20;;
18806;SDS011;9531;52.030;4.380;2022-12-07T00:29:04;573.23;;;189.47;;
18806;SDS011;9531;52.030;4.380;2022-12-07T00:32:05;571.10;;;179.20;;
18806;SDS011;9531;52.030;4.380;2022-12-07T00:35:04;562.07;;;177.63;;
18806;SDS011;9531;52.030;4.380;2022-12-07T00:40:51;568.50;;;181.87;;
18806;SDS011;9531;52.030;4.380;2022-12-07T00:43:52;574.80;;;187.83;;
18806;SDS011;9531;52.030;4.380;2022-12-07T00:50:05;549.80;;;174.13;;
18806;SDS011;9531;52.030;4.380;2022-12-07T00:53:13;562.97;;;182.47;;
18806;SDS011;9531;52.030;4.380;2022-12-07T00:56:48;569.50;;;188.17;;
18806;SDS011;9531;52.030;4.380;2022-12-07T00:59:49;563.30;;;174.23;;
18806;SDS011;9531;52.030;4.380;2022-12-07T01:02:56;563.67;;;159.60;;
18806;SDS011;9531;52.030;4.380;2022-12-07T01:05:49;561.70;;;158.63;;
18806;SDS011;9531;52.030;4.380;2022-12-07T01:15:25;555.47;;;162.33;;
18806;SDS011;9531;52.030;4.380;2022-12-07T01:17:47;564.43;;;168.00;;
18806;SDS011;9531;52.030;4.380;2022-12-07T01:20:47;570.47;;;168.73;;
18806;SDS011;9531;52.030;4.380;2022-12-07T01:27:00;552.23;;;162.27;;
18806;SDS011;9531;52.030;4.380;2022-12-07T01:30:45;551.20;;;156.00;;
18806;SDS011;9531;52.030;4.380;2022-12-07T01:37:11;543.30;;;156.63;;
18806;SDS011;9531;52.030;4.380;2022-12-07T01:40:21;557.20;;;163.37;;
18806;SDS011;9531;52.030;4.380;2022-12-07T01:43:15;551.87;;;166.80;;
18806;SDS011;9531;52.030;4.380;2022-12-07T01:46:07;542.87;;;147.60;;
18806;SDS011;9531;52.030;4.380;2022-12-07T01:51:42;547.63;;;157.90;;
18806;SDS011;9531;52.030;4.380;2022-12-07T01:54:25;550.07;;;154.77;;
18806;SDS011;9531;52.030;4.380;2022-12-07T01:57:03;552.67;;;163.50;;
18806;SDS011;9531;52.030;4.380;2022-12-07T01:59:39;556.63;;;172.20;;
18806;SDS011;9531;52.030;4.380;2022-12-07T02:02:30;568.03;;;172.77;;
18806;SDS011;9531;52.030;4.380;2022-12-07T02:05:04;559.23;;;170.63;;
18806;SDS011;9531;52.030;4.380;2022-12-07T02:07:39;563.73;;;161.27;;
18806;SDS011;9531;52.030;4.380;2022-12-07T02:10:19;578.90;;;171.37;;
18806;SDS011;9531;52.030;4.380;2022-12-07T02:13:00;569.33;;;173.23;;
18806;SDS011;9531;52.030;4.380;2022-12-07T02:15:50;574.33;;;169.13;;
18806;SDS011;9531;52.030;4.380;2022-12-07T02:18:41;563.57;;;171.93;;
18806;SDS011;9531;52.030;4.380;2022-12-07T02:21:18;570.80;;;168.83;;
18806;SDS011;9531;52.030;4.380;2022-12-07T02:24:16;578.67;;;178.33;;
18806;SDS011;9531;52.030;4.380;2022-12-07T02:30:07;578.30;;;173.40;;
18806;SDS011;9531;52.030;4.380;2022-12-07T02:32:50;603.20;;;183.33;;
18806;SDS011;9531;52.030;4.380;2022-12-07T02:35:35;552.37;;;169.63;;
18806;SDS011;9531;52.030;4.380;2022-12-07T02:38:26;549.50;;;165.97;;
18806;SDS011;9531;52.030;4.380;2022-12-07T02:41:22;555.80;;;179.10;;
18806;SDS011;9531;52.030;4.380;2022-12-07T02:44:06;552.80;;;183.60;;
18806;SDS011;9531;52.030;4.380;2022-12-07T02:46:43;548.87;;;180.63;;
18806;SDS011;9531;52.030;4.380;2022-12-07T02:49:21;562.10;;;183.30;;
18806;SDS011;9531;52.030;4.380;2022-12-07T02:51:58;557.17;;;187.33;;
18806;SDS011;9531;52.030;4.380;2022-12-07T02:54:34;550.17;;;187.27;;
18806;SDS011;9531;52.030;4.380;2022-12-07T03:00:08;540.87;;;179.03;;
18806;SDS011;9531;52.030;4.380;2022-12-07T03:02:49;562.23;;;175.70;;
18806;SDS011;9531;52.030;4.380;2022-12-07T03:05:40;540.93;;;160.20;;
18806;SDS011;9531;52.030;4.380;2022-12-07T03:08:19;537.63;;;164.33;;
18806;SDS011;9531;52.030;4.380;2022-12-07T03:10:54;536.13;;;158.13;;
18806;SDS011;9531;52.030;4.380;2022-12-07T03:13:25;546.63;;;161.57;;
18806;SDS011;9531;52.030;4.380;2022-12-07T03:15:58;545.93;;;153.37;;
18806;SDS011;9531;52.030;4.380;2022-12-07T03:18:35;539.97;;;160.87;;
18806;SDS011;9531;52.030;4.380;2022-12-07T03:21:23;542.70;;;157.87;;
18806;SDS011;9531;52.030;4.380;2022-12-07T03:24:08;552.87;;;161.87;;
18806;SDS011;9531;52.030;4.380;2022-12-07T03:26:47;556.83;;;195.00;;
18806;SDS011;9531;52.030;4.380;2022-12-07T03:29:22;552.90;;;190.43;;
18806;SDS011;9531;52.030;4.380;2022-12-07T03:38:18;550.63;;;185.13;;
18806;SDS011;9531;52.030;4.380;2022-12-07T03:41:18;555.23;;;187.13;;
18806;SDS011;9531;52.030;4.380;2022-12-07T03:44:03;549.97;;;192.07;;
18806;SDS011;9531;52.030;4.380;2022-12-07T04:10:33;548.93;;;183.83;;
18806;SDS011;9531;52.030;4.380;2022-12-07T04:18:00;540.53;;;155.40;;
18806;SDS011;9531;52.030;4.380;2022-12-07T04:20:30;552.80;;;207.63;;
18806;SDS011;9531;52.030;4.380;2022-12-07T06:33:21;508.43;;;140.03;;
18806;SDS011;9531;52.030;4.380;2022-12-07T06:35:51;521.40;;;159.10;;
18806;SDS011;9531;52.030;4.380;2022-12-07T06:38:25;515.00;;;154.43;;
18806;SDS011;9531;52.030;4.380;2022-12-07T06:40:52;521.30;;;144.57;;
18806;SDS011;9531;52.030;4.380;2022-12-07T06:43:26;514.17;;;141.33;;
18806;SDS011;9531;52.030;4.380;2022-12-07T06:46:03;527.57;;;155.97;;
18806;SDS011;9531;52.030;4.380;2022-12-07T06:54:45;516.27;;;167.83;;
18806;SDS011;9531;52.030;4.380;2022-12-07T06:57:16;517.63;;;159.07;;
18806;SDS011;9531;52.030;4.380;2022-12-07T06:59:46;530.87;;;169.20;;
18806;SDS011;9531;52.030;4.380;2022-12-07T07:02:21;527.73;;;178.73;;
18806;SDS011;9531;52.030;4.380;2022-12-07T07:05:05;532.10;;;182.17;;
18806;SDS011;9531;52.030;4.380;2022-12-07T07:07:34;529.17;;;175.27;;
18806;SDS011;9531;52.030;4.380;2022-12-07T07:10:22;521.17;;;140.20;;
18806;SDS011;9531;52.030;4.380;2022-12-07T07:16:32;528.23;;;164.30;;
18806;SDS011;9531;52.030;4.380;2022-12-07T07:26:00;515.73;;;145.03;;
18806;SDS011;9531;52.030;4.380;2022-12-07T07:28:54;507.37;;;129.57;;
18806;SDS011;9531;52.030;4.380;2022-12-07T07:31:38;525.73;;;149.70;;
18806;SDS011;9531;52.030;4.380;2022-12-07T07:37:33;525.33;;;155.37;;
18806;SDS011;9531;52.030;4.380;2022-12-07T07:46:23;538.03;;;192.03;;
18806;SDS011;9531;52.030;4.380;2022-12-07T07:50:01;552.77;;;190.33;;
18806;SDS011;9531;52.030;4.380;2022-12-07T08:14:06;512.07;;;136.00;;
18806;SDS011;9531;52.030;4.380;2022-12-07T08:16:37;539.13;;;176.67;;
18806;SDS011;9531;52.030;4.380;2022-12-07T08:19:05;542.40;;;180.40;;
18806;SDS011;9531;52.030;4.380;2022-12-07T08:21:38;546.83;;;177.60;;
18806;SDS011;9531;52.030;4.380;2022-12-07T08:24:14;547.73;;;178.83;;
18806;SDS011;9531;52.030;4.380;2022-12-07T08:26:47;556.83;;;195.57;;
18806;SDS011;9531;52.030;4.380;2022-12-07T08:29:23;554.87;;;192.23;;
18806;SDS011;9531;52.030;4.380;2022-12-07T08:31:52;557.73;;;185.93;;
18806;SDS011;9531;52.030;4.380;2022-12-07T08:34:24;563.97;;;192.80;;
18806;SDS011;9531;52.030;4.380;2022-12-07T08:36:51;555.80;;;192.87;;
18806;SDS011;9531;52.030;4.380;2022-12-07T08:39:32;558.57;;;187.90;;
18806;SDS011;9531;52.030;4.380;2022-12-07T08:42:41;549.03;;;194.93;;
18806;SDS011;9531;52.030;4.380;2022-12-07T08:45:19;557.67;;;202.00;;
18806;SDS011;9531;52.030;4.380;2022-12-07T08:48:11;552.87;;;197.10;;
18806;SDS011;9531;52.030;4.380;2022-12-07T08:50:59;548.07;;;196.70;;
18806;SDS011;9531;52.030;4.380;2022-12-07T08:54:04;539.67;;;161.23;;
18806;SDS011;9531;52.030;4.380;2022-12-07T08:58:04;548.57;;;175.07;;
18806;SDS011;9531;52.030;4.380;2022-12-07T09:00:34;540.53;;;150.83;;
18806;SDS011;9531;52.030;4.380;2022-12-07T09:03:12;544.53;;;149.17;;
18806;SDS011;9531;52.030;4.380;2022-12-07T09:09:35;541.27;;;171.43;;
18806;SDS011;9531;52.030;4.380;2022-12-07T09:12:41;541.50;;;158.10;;
18806;SDS011;9531;52.030;4.380;2022-12-07T09:15:30;551.40;;;181.30;;
18806;SDS011;9531;52.030;4.380;2022-12-07T09:18:38;548.90;;;180.37;;
18806;SDS011;9531;52.030;4.380;2022-12-07T09:21:26;550.83;;;167.23;;
18806;SDS011;9531;52.030;4.380;2022-12-07T09:24:22;554.87;;;185.70;;
18806;SDS011;9531;52.030;4.380;2022-12-07T09:30:56;549.47;;;178.00;;
18806;SDS011;9531;52.030;4.380;2022-12-07T09:33:44;568.10;;;206.97;;
18806;SDS011;9531;52.030;4.380;2022-12-07T09:36:42;561.13;;;192.90;;
18806;SDS011;9531;52.030;4.380;2022-12-07T09:39:12;569.60;;;200.83;;
18806;SDS011;9531;52.030;4.380;2022-12-07T09:41:51;575.20;;;198.77;;
18806;SDS011;9531;52.030;4.380;2022-12-07T09:44:40;570.37;;;198.37;;
18806;SDS011;9531;52.030;4.380;2022-12-07T09:50:52;570.10;;;204.23;;
18806;SDS011;9531;52.030;4.380;2022-12-07T09:53:39;577.40;;;207.63;;
18806;SDS011;9531;52.030;4.380;2022-12-07T09:56:13;572.23;;;205.13;;
18806;SDS011;9531;52.030;4.380;2022-12-07T10:00:29;588.03;;;211.13;;
18806;SDS011;9531;52.030;4.380;2022-12-07T10:03:20;588.63;;;231.80;;
18806;SDS011;9531;52.030;4.380;2022-12-07T10:06:26;610.67;;;222.77;;
18806;SDS011;9531;52.030;4.380;2022-12-07T10:12:50;775.20;;;248.57;;
18806;SDS011;9531;52.030;4.380;2022-12-07T10:16:16;755.30;;;212.77;;
18806;SDS011;9531;52.030;4.380;2022-12-07T10:19:49;740.67;;;228.17;;
18806;SDS011;9531;52.030;4.380;2022-12-07T10:23:16;772.90;;;273.77;;
18806;SDS011;9531;52.030;4.380;2022-12-07T10:39:17;817.10;;;259.63;;
18806;SDS011;9531;52.030;4.380;2022-12-07T10:42:44;846.50;;;274.87;;
18806;SDS011;9531;52.030;4.380;2022-12-07T10:45:42;841.70;;;266.40;;
18806;SDS011;9531;52.030;4.380;2022-12-07T11:22:34;860.53;;;274.47;;
18806;SDS011;9531;52.030;4.380;2022-12-07T11:25:29;823.53;;;252.90;;
18806;SDS011;9531;52.030;4.380;2022-12-07T11:28:21;813.47;;;249.37;;
18806;SDS011;9531;52.030;4.380;2022-12-07T11:31:07;839.00;;;253.50;;
18806;SDS011;9531;52.030;4.380;2022-12-07T11:33:52;860.03;;;261.13;;
18806;SDS011;9531;52.030;4.380;2022-12-07T11:36:31;864.27;;;265.67;;
18806;SDS011;9531;52.030;4.380;2022-12-07T11:39:04;891.23;;;286.10;;
18806;SDS011;9531;52.030;4.380;2022-12-07T11:41:47;899.77;;;297.90;;
18806;SDS011;9531;52.030;4.380;2022-12-07T11:44:23;890.67;;;272.17;;
18806;SDS011;9531;52.030;4.380;2022-12-07T11:47:01;903.83;;;297.23;;
18806;SDS011;9531;52.030;4.380;2022-12-07T11:49:40;915.20;;;310.10;;
18806;SDS011;9531;52.030;4.380;2022-12-07T11:52:14;855.67;;;289.83;;
18806;SDS011;9531;52.030;4.380;2022-12-07T11:54:49;893.47;;;306.80;;
18806;SDS011;9531;52.030;4.380;2022-12-07T11:57:20;891.83;;;285.33;;
18806;SDS011;9531;52.030;4.380;2022-12-07T11:59:58;884.30;;;257.57;;
18806;SDS011;9531;52.030;4.380;2022-12-07T12:02:32;893.33;;;285.43;;
18806;SDS011;9531;52.030;4.380;2022-12-07T12:05:13;902.60;;;299.47;;
18806;SDS011;9531;52.030;4.380;2022-12-07T12:07:44;733.50;;;231.63;;
18806;SDS011;9531;52.030;4.380;2022-12-07T12:10:16;756.37;;;242.63;;
18806;SDS011;9531;52.030;4.380;2022-12-07T12:15:50;843.30;;;269.33;;
18806;SDS011;9531;52.030;4.380;2022-12-07T12:18:45;833.90;;;225.93;;
18806;SDS011;9531;52.030;4.380;2022-12-07T12:21:23;850.60;;;255.70;;
18806;SDS011;9531;52.030;4.380;2022-12-07T12:23:56;790.30;;;219.87;;
18806;SDS011;9531;52.030;4.380;2022-12-07T12:26:30;793.67;;;229.47;;
18806;SDS011;9531;52.030;4.380;2022-12-07T12:29:03;826.40;;;254.60;;
18806;SDS011;9531;52.030;4.380;2022-12-07T12:31:39;765.63;;;220.50;;
18806;SDS011;9531;52.030;4.380;2022-12-07T12:34:33;826.50;;;251.60;;
18806;SDS011;9531;52.030;4.380;2022-12-07T12:46:38;828.33;;;255.03;;
18806;SDS011;9531;52.030;4.380;2022-12-07T12:49:35;802.03;;;244.80;;
18806;SDS011;9531;52.030;4.380;2022-12-07T13:08:02;795.93;;;230.00;;
18806;SDS011;9531;52.030;4.380;2022-12-07T13:10:51;788.23;;;231.70;;
18806;SDS011;9531;52.030;4.380;2022-12-07T13:13:31;825.43;;;232.50;;
18806;SDS011;9531;52.030;4.380;2022-12-07T13:28:36;813.53;;;244.23;;
18806;SDS011;9531;52.030;4.380;2022-12-07T13:31:23;838.87;;;252.03;;
18806;SDS011;9531;52.030;4.380;2022-12-07T13:37:29;886.93;;;296.10;;
18806;SDS011;9531;52.030;4.380;2022-12-07T13:47:05;847.33;;;273.40;;
18806;SDS011;9531;52.030;4.380;2022-12-07T13:50:22;845.93;;;265.23;;
18806;SDS011;9531;52.030;4.380;2022-12-07T13:52:59;858.63;;;259.23;;
18806;SDS011;9531;52.030;4.380;2022-12-07T13:55:34;880.10;;;252.90;;
18806;SDS011;9531;52.030;4.380;2022-12-07T13:58:36;881.27;;;251.80;;
18806;SDS011;9531;52.030;4.380;2022-12-07T14:04:49;894.47;;;276.80;;
18806;SDS011;9531;52.030;4.380;2022-12-07T14:11:01;888.97;;;267.20;;
18806;SDS011;9531;52.030;4.380;2022-12-07T14:13:58;882.50;;;236.40;;
18806;SDS011;9531;52.030;4.380;2022-12-07T14:16:38;897.33;;;272.50;;
18806;SDS011;9531;52.030;4.380;2022-12-07T14:25:50;936.13;;;304.93;;
18806;SDS011;9531;52.030;4.380;2022-12-07T14:28:50;954.30;;;303.10;;
18806;SDS011;9531;52.030;4.380;2022-12-07T14:31:51;939.10;;;281.40;;
18806;SDS011;9531;52.030;4.380;2022-12-07T14:34:39;884.50;;;250.97;;
18806;SDS011;9531;52.030;4.380;2022-12-07T14:37:07;905.63;;;256.23;;
18806;SDS011;9531;52.030;4.380;2022-12-07T14:39:52;902.90;;;267.20;;
18806;SDS011;9531;52.030;4.380;2022-12-07T14:42:55;842.53;;;252.00;;
18806;SDS011;9531;52.030;4.380;2022-12-07T14:45:34;773.07;;;220.50;;
18806;SDS011;9531;52.030;4.380;2022-12-07T14:50:59;742.87;;;211.13;;
18806;SDS011;9531;52.030;4.380;2022-12-07T14:51:40;733.20;;;222.47;;
18806;SDS011;9531;52.030;4.380;2022-12-07T14:54:43;739.93;;;216.40;;
18806;SDS011;9531;52.030;4.380;2022-12-07T14:57:55;741.13;;;223.97;;
18806;SDS011;9531;52.030;4.380;2022-12-07T15:03:34;715.47;;;188.60;;
18806;SDS011;9531;52.030;4.380;2022-12-07T15:09:55;710.67;;;201.70;;
18806;SDS011;9531;52.030;4.380;2022-12-07T15:38:33;613.50;;;170.00;;
18806;SDS011;9531;52.030;4.380;2022-12-07T15:41:05;603.03;;;154.70;;
18806;SDS011;9531;52.030;4.380;2022-12-07T15:43:32;607.70;;;138.00;;
18806;SDS011;9531;52.030;4.380;2022-12-07T15:46:17;622.23;;;179.97;;
18806;SDS011;9531;52.030;4.380;2022-12-07T15:48:45;624.70;;;177.00;;
18806;SDS011;9531;52.030;4.380;2022-12-07T15:51:17;619.70;;;156.30;;
18806;SDS011;9531;52.030;4.380;2022-12-07T15:53:48;634.70;;;206.13;;
18806;SDS011;9531;52.030;4.380;2022-12-07T15:56:15;637.07;;;217.83;;
18806;SDS011;9531;52.030;4.380;2022-12-07T15:58:45;625.30;;;185.07;;
18806;SDS011;9531;52.030;4.380;2022-12-07T16:01:17;638.33;;;194.03;;
18806;SDS011;9531;52.030;4.380;2022-12-07T16:03:50;643.23;;;183.77;;
18806;SDS011;9531;52.030;4.380;2022-12-07T16:06:19;627.60;;;175.23;;
18806;SDS011;9531;52.030;4.380;2022-12-07T16:08:58;632.07;;;173.80;;
18806;SDS011;9531;52.030;4.380;2022-12-07T16:11:29;641.13;;;189.93;;
18806;SDS011;9531;52.030;4.380;2022-12-07T16:14:01;633.07;;;188.90;;
18806;SDS011;9531;52.030;4.380;2022-12-07T16:16:29;627.47;;;178.53;;
18806;SDS011;9531;52.030;4.380;2022-12-07T16:18:57;627.63;;;186.10;;
18806;SDS011;9531;52.030;4.380;2022-12-07T16:21:24;625.17;;;179.60;;
18806;SDS011;9531;52.030;4.380;2022-12-07T16:23:52;620.70;;;167.60;;
18806;SDS011;9531;52.030;4.380;2022-12-07T16:26:21;614.40;;;151.57;;
18806;SDS011;9531;52.030;4.380;2022-12-07T16:28:49;604.80;;;139.20;;
18806;SDS011;9531;52.030;4.380;2022-12-07T16:31:17;626.07;;;189.43;;
18806;SDS011;9531;52.030;4.380;2022-12-07T16:33:49;629.00;;;201.87;;
18806;SDS011;9531;52.030;4.380;2022-12-07T16:36:20;622.00;;;178.97;;
18806;SDS011;9531;52.030;4.380;2022-12-07T16:38:52;622.33;;;180.53;;
18806;SDS011;9531;52.030;4.380;2022-12-07T16:41:29;608.47;;;179.83;;
18806;SDS011;9531;52.030;4.380;2022-12-07T16:43:57;608.17;;;163.87;;
18806;SDS011;9531;52.030;4.380;2022-12-07T16:46:28;608.07;;;189.13;;
18806;SDS011;9531;52.030;4.380;2022-12-07T16:49:10;599.30;;;153.37;;
18806;SDS011;9531;52.030;4.380;2022-12-07T16:52:03;603.43;;;154.20;;
18806;SDS011;9531;52.030;4.380;2022-12-07T16:58:14;584.50;;;135.80;;
18806;SDS011;9531;52.030;4.380;2022-12-07T17:00:50;593.57;;;143.57;;
18806;SDS011;9531;52.030;4.380;2022-12-07T17:03:19;602.73;;;162.50;;
18806;SDS011;9531;52.030;4.380;2022-12-07T17:05:48;593.37;;;141.33;;
18806;SDS011;9531;52.030;4.380;2022-12-07T17:08:16;598.70;;;149.67;;
18806;SDS011;9531;52.030;4.380;2022-12-07T17:10:43;611.93;;;165.43;;
18806;SDS011;9531;52.030;4.380;2022-12-07T17:13:16;599.43;;;154.97;;
18806;SDS011;9531;52.030;4.380;2022-12-07T17:16:02;618.10;;;179.93;;
18806;SDS011;9531;52.030;4.380;2022-12-07T17:18:33;614.10;;;170.93;;
18806;SDS011;9531;52.030;4.380;2022-12-07T17:21:01;609.13;;;160.67;;
18806;SDS011;9531;52.030;4.380;2022-12-07T17:23:31;610.73;;;173.47;;
18806;SDS011;9531;52.030;4.380;2022-12-07T17:26:06;616.00;;;168.90;;
18806;SDS011;9531;52.030;4.380;2022-12-07T17:28:35;598.27;;;150.47;;
18806;SDS011;9531;52.030;4.380;2022-12-07T17:31:04;609.60;;;162.57;;
18806;SDS011;9531;52.030;4.380;2022-12-07T17:33:32;606.57;;;171.77;;
18806;SDS011;9531;52.030;4.380;2022-12-07T17:36:01;610.43;;;164.90;;
18806;SDS011;9531;52.030;4.380;2022-12-07T17:38:36;598.50;;;178.93;;
18806;SDS011;9531;52.030;4.380;2022-12-07T17:41:08;604.53;;;174.07;;
18806;SDS011;9531;52.030;4.380;2022-12-07T17:43:38;608.60;;;181.63;;
18806;SDS011;9531;52.030;4.380;2022-12-07T17:46:06;614.60;;;187.30;;
18806;SDS011;9531;52.030;4.380;2022-12-07T17:48:34;608.87;;;180.23;;
18806;SDS011;9531;52.030;4.380;2022-12-07T17:51:02;615.87;;;191.40;;
18806;SDS011;9531;52.030;4.380;2022-12-07T17:53:47;605.43;;;183.60;;
18806;SDS011;9531;52.030;4.380;2022-12-07T17:56:17;608.37;;;183.57;;
18806;SDS011;9531;52.030;4.380;2022-12-07T17:58:46;613.37;;;184.33;;
18806;SDS011;9531;52.030;4.380;2022-12-07T18:01:13;617.57;;;196.07;;
18806;SDS011;9531;52.030;4.380;2022-12-07T18:03:40;612.73;;;192.33;;
18806;SDS011;9531;52.030;4.380;2022-12-07T18:06:15;618.97;;;208.77;;
18806;SDS011;9531;52.030;4.380;2022-12-07T18:08:45;616.70;;;201.13;;
18806;SDS011;9531;52.030;4.380;2022-12-07T18:11:12;624.80;;;206.50;;
18806;SDS011;9531;52.030;4.380;2022-12-07T18:13:41;609.90;;;167.47;;
18806;SDS011;9531;52.030;4.380;2022-12-07T18:16:10;605.67;;;165.83;;
18806;SDS011;9531;52.030;4.380;2022-12-07T18:18:40;595.87;;;150.47;;
18806;SDS011;9531;52.030;4.380;2022-12-07T18:21:09;603.10;;;160.63;;
18806;SDS011;9531;52.030;4.380;2022-12-07T18:23:38;602.93;;;166.13;;
18806;SDS011;9531;52.030;4.380;2022-12-07T18:26:05;606.77;;;171.63;;
18806;SDS011;9531;52.030;4.380;2022-12-07T18:28:34;593.70;;;152.17;;
18806;SDS011;9531;52.030;4.380;2022-12-07T18:31:02;583.60;;;143.10;;
18806;SDS011;9531;52.030;4.380;2022-12-07T18:33:30;595.63;;;164.60;;
18806;SDS011;9531;52.030;4.380;2022-12-07T18:35:58;600.63;;;164.27;;
18806;SDS011;9531;52.030;4.380;2022-12-07T18:38:27;614.57;;;205.90;;
18806;SDS011;9531;52.030;4.380;2022-12-07T18:40:54;615.77;;;204.53;;
18806;SDS011;9531;52.030;4.380;2022-12-07T18:53:11;588.97;;;175.67;;
18806;SDS011;9531;52.030;4.380;2022-12-07T18:55:42;595.37;;;178.67;;
18806;SDS011;9531;52.030;4.380;2022-12-07T18:58:12;598.70;;;180.37;;
18806;SDS011;9531;52.030;4.380;2022-12-07T19:00:43;603.27;;;182.10;;
18806;SDS011;9531;52.030;4.380;2022-12-07T19:03:14;606.60;;;186.30;;
18806;SDS011;9531;52.030;4.380;2022-12-07T19:05:54;601.80;;;203.90;;
18806;SDS011;9531;52.030;4.380;2022-12-07T19:08:30;607.13;;;209.43;;
18806;SDS011;9531;52.030;4.380;2022-12-07T19:11:03;607.93;;;213.30;;
18806;SDS011;9531;52.030;4.380;2022-12-07T19:13:51;603.70;;;196.00;;
18806;SDS011;9531;52.030;4.380;2022-12-07T19:16:21;608.20;;;216.60;;
18806;SDS011;9531;52.030;4.380;2022-12-07T19:19:27;589.33;;;167.33;;
18806;SDS011;9531;52.030;4.380;2022-12-07T19:22:01;590.13;;;176.67;;
18806;SDS011;9531;52.030;4.380;2022-12-07T19:24:33;597.67;;;174.90;;
18806;SDS011;9531;52.030;4.380;2022-12-07T19:27:04;585.53;;;170.13;;
18806;SDS011;9531;52.030;4.380;2022-12-07T19:29:43;577.93;;;168.27;;
18806;SDS011;9531;52.030;4.380;2022-12-07T19:32:11;581.53;;;173.73;;
18806;SDS011;9531;52.030;4.380;2022-12-07T19:34:44;591.10;;;176.57;;
18806;SDS011;9531;52.030;4.380;2022-12-07T19:37:14;587.20;;;177.27;;
18806;SDS011;9531;52.030;4.380;2022-12-07T19:39:46;581.00;;;163.53;;
18806;SDS011;9531;52.030;4.380;2022-12-07T19:42:16;581.23;;;164.30;;
18806;SDS011;9531;52.030;4.380;2022-12-07T19:44:44;586.13;;;174.63;;
18806;SDS011;9531;52.030;4.380;2022-12-07T19:47:12;589.50;;;179.23;;
18806;SDS011;9531;52.030;4.380;2022-12-07T20:23:08;768.17;;;290.67;;
18806;SDS011;9531;52.030;4.380;2022-12-07T20:25:44;675.20;;;225.93;;
18806;SDS011;9531;52.030;4.380;2022-12-07T20:30:06;639.73;;;199.70;;
18806;SDS011;9531;52.030;4.380;2022-12-07T20:32:34;625.83;;;196.13;;
18806;SDS011;9531;52.030;4.380;2022-12-07T20:35:02;610.00;;;178.17;;
18806;SDS011;9531;52.030;4.380;2022-12-07T20:37:30;602.00;;;178.80;;
18806;SDS011;9531;52.030;4.380;2022-12-07T20:39:57;596.53;;;171.40;;
18806;SDS011;9531;52.030;4.380;2022-12-07T20:42:24;598.00;;;181.40;;
18806;SDS011;9531;52.030;4.380;2022-12-07T20:45:06;594.63;;;182.87;;
18806;SDS011;9531;52.030;4.380;2022-12-07T20:47:34;596.43;;;182.67;;
18806;SDS011;9531;52.030;4.380;2022-12-07T20:50:02;591.57;;;178.97;;
18806;SDS011;9531;52.030;4.380;2022-12-07T20:52:30;597.83;;;184.43;;
18806;SDS011;9531;52.030;4.380;2022-12-07T20:54:57;594.40;;;181.43;;
18806;SDS011;9531;52.030;4.380;2022-12-07T20:57:24;594.30;;;193.13;;
18806;SDS011;9531;52.030;4.380;2022-12-07T20:59:52;591.00;;;186.73;;
18806;SDS011;9531;52.030;4.380;2022-12-07T21:02:20;598.23;;;188.23;;
18806;SDS011;9531;52.030;4.380;2022-12-07T21:04:47;592.23;;;196.00;;
18806;SDS011;9531;52.030;4.380;2022-12-07T21:07:14;589.30;;;193.53;;
18806;SDS011;9531;52.030;4.380;2022-12-07T21:09:44;595.27;;;193.13;;
18806;SDS011;9531;52.030;4.380;2022-12-07T21:12:11;593.80;;;185.83;;
18806;SDS011;9531;52.030;4.380;2022-12-07T21:14:39;589.17;;;179.67;;
18806;SDS011;9531;52.030;4.380;2022-12-07T21:17:06;593.50;;;192.37;;
18806;SDS011;9531;52.030;4.380;2022-12-07T21:19:35;603.40;;;206.10;;
18806;SDS011;9531;52.030;4.380;2022-12-07T21:22:03;584.93;;;188.07;;
18806;SDS011;9531;52.030;4.380;2022-12-07T21:24:30;581.80;;;197.07;;
18806;SDS011;9531;52.030;4.380;2022-12-07T21:26:57;584.30;;;202.70;;
18806;SDS011;9531;52.030;4.380;2022-12-07T21:29:24;580.17;;;196.87;;
18806;SDS011;9531;52.030;4.380;2022-12-07T21:31:51;583.50;;;203.37;;
18806;SDS011;9531;52.030;4.380;2022-12-07T21:34:19;574.60;;;169.80;;
18806;SDS011;9531;52.030;4.380;2022-12-07T21:36:47;571.70;;;164.17;;
18806;SDS011;9531;52.030;4.380;2022-12-07T21:39:14;575.03;;;171.17;;
18806;SDS011;9531;52.030;4.380;2022-12-07T21:41:42;585.87;;;177.30;;
18806;SDS011;9531;52.030;4.380;2022-12-07T21:44:09;576.90;;;174.70;;
18806;SDS011;9531;52.030;4.380;2022-12-07T21:46:37;578.83;;;176.40;;
18806;SDS011;9531;52.030;4.380;2022-12-07T21:49:11;586.47;;;189.90;;
18806;SDS011;9531;52.030;4.380;2022-12-07T21:51:49;573.33;;;153.70;;
18806;SDS011;9531;52.030;4.380;2022-12-07T21:54:16;571.50;;;154.47;;
18806;SDS011;9531;52.030;4.380;2022-12-07T21:56:53;575.03;;;156.80;;
18806;SDS011;9531;52.030;4.380;2022-12-07T21:59:19;578.53;;;161.47;;
18806;SDS011;9531;52.030;4.380;2022-12-07T22:01:47;581.93;;;151.63;;
18806;SDS011;9531;52.030;4.380;2022-12-07T22:04:22;568.83;;;136.13;;
18806;SDS011;9531;52.030;4.380;2022-12-07T22:06:52;573.80;;;141.50;;
18806;SDS011;9531;52.030;4.380;2022-12-07T22:09:21;573.63;;;186.70;;
18806;SDS011;9531;52.030;4.380;2022-12-07T22:11:48;585.10;;;189.30;;
18806;SDS011;9531;52.030;4.380;2022-12-07T22:14:19;592.67;;;185.10;;
18806;SDS011;9531;52.030;4.380;2022-12-07T22:17:05;595.10;;;196.37;;
18806;SDS011;9531;52.030;4.380;2022-12-07T22:19:31;599.53;;;198.50;;
18806;SDS011;9531;52.030;4.380;2022-12-07T22:22:13;599.03;;;193.90;;
18806;SDS011;9531;52.030;4.380;2022-12-07T22:27:19;584.60;;;195.40;;
18806;SDS011;9531;52.030;4.380;2022-12-07T22:29:46;598.87;;;197.90;;
18806;SDS011;9531;52.030;4.380;2022-12-07T22:32:19;611.77;;;207.13;;
18806;SDS011;9531;52.030;4.380;2022-12-07T22:34:47;609.43;;;199.70;;
18806;SDS011;9531;52.030;4.380;2022-12-07T22:37:15;619.43;;;202.10;;
18806;SDS011;9531;52.030;4.380;2022-12-07T22:39:48;601.50;;;199.90;;
18806;SDS011;9531;52.030;4.380;2022-12-07T22:42:15;602.00;;;208.97;;
18806;SDS011;9531;52.030;4.380;2022-12-07T22:44:45;613.13;;;216.53;;
18806;SDS011;9531;52.030;4.380;2022-12-07T22:47:13;626.07;;;216.87;;
18806;SDS011;9531;52.030;4.380;2022-12-07T22:49:44;610.77;;;204.17;;